sensor_id;sensor_type;location;lat;lon;timestamp;pressure;altitude;pressure_sealevel;temperature;humidity
5053;BME280;2545;50.892;5.740;2023-01-29T00:01:58;56402.31;;;-142.21;100.00
5053;BME280;2545;50.892;5.740;2023-01-29T00:04:23;56378.78;;;-142.21;100.00
5053;BME280;2545;50.892;5.740;2023-01-29T00:06:49;56402.31;;;-142.21;100.00
5053;BME280;2545;50.892;5.740;2023-01-29T00:09:14;56400.34;;;-142.21;100.00
5053;BME280;2545;50.892;5.740;2023-01-29T00:11:39;56414.06;;;-142.21;100.00
5053;BME280;2545;50.892;5.740;2023-01-29T00:14:05;56402.31;;;-142.21;100.00
5053;BME280;2545;50.892;5.740;2023-01-29T00:16:31;56370.94;;;-142.21;100.00
5053;BME280;2545;50.892;5.740;2023-01-29T00:18:56;56390.53;;;-142.21;100.00
5053;BME280;2545;50.892;5.740;2023-01-29T00:21:22;56453.28;;;-142.21;100.00
5053;BME280;2545;50.892;5.740;2023-01-29T00:23:48;56376.81;;;-142.21;100.00
5053;BME280;2545;50.892;5.740;2023-01-29T00:26:14;56386.63;;;-142.21;100.00
5053;BME280;2545;50.892;5.740;2023-01-29T00:28:40;56400.34;;;-142.21;100.00
5053;BME280;2545;50.892;5.740;2023-01-29T00:31:11;56370.94;;;-142.21;100.00
5053;BME280;2545;50.892;5.740;2023-01-29T00:33:37;56410.16;;;-142.21;100.00
5053;BME280;2545;50.892;5.740;2023-01-29T00:36:04;56400.34;;;-142.21;100.00
5053;BME280;2545;50.892;5.740;2023-01-29T00:38:30;56353.28;;;-142.21;100.00
5053;BME280;2545;50.892;5.740;2023-01-29T00:40:55;56392.50;;;-142.21;100.00
5053;BME280;2545;50.892;5.740;2023-01-29T00:43:39;56392.50;;;-142.21;100.00
5053;BME280;2545;50.892;5.740;2023-01-29T00:46:23;56368.97;;;-142.21;100.00
5053;BME280;2545;50.892;5.740;2023-01-29T00:48:48;56406.22;;;-142.21;100.00
5053;BME280;2545;50.892;5.740;2023-01-29T00:51:13;56372.91;;;-142.21;100.00
5053;BME280;2545;50.892;5.740;2023-01-29T00:53:38;56378.78;;;-142.21;100.00
5053;BME280;2545;50.892;5.740;2023-01-29T00:56:04;56376.81;;;-142.21;100.00
5053;BME280;2545;50.892;5.740;2023-01-29T00:58:29;56406.22;;;-142.21;100.00
5053;BME280;2545;50.892;5.740;2023-01-29T01:00:59;56396.44;;;-142.21;100.00
5053;BME280;2545;50.892;5.740;2023-01-29T01:03:25;56380.75;;;-142.21;100.00
5053;BME280;2545;50.892;5.740;2023-01-29T01:06:01;56425.84;;;-142.21;100.00
5053;BME280;2545;50.892;5.740;2023-01-29T01:08:27;56402.31;;;-142.21;100.00
5053;BME280;2545;50.892;5.740;2023-01-29T01:11:10;56390.53;;;-142.21;100.00
5053;BME280;2545;50.892;5.740;2023-01-29T01:13:36;56382.69;;;-142.21;100.00
5053;BME280;2545;50.892;5.740;2023-01-29T01:16:01;56408.19;;;-142.21;100.00
5053;BME280;2545;50.892;5.740;2023-01-29T01:18:29;56365.06;;;-142.21;100.00
5053;BME280;2545;50.892;5.740;2023-01-29T01:20:58;56412.13;;;-142.21;100.00
5053;BME280;2545;50.892;5.740;2023-01-29T01:23:23;56370.94;;;-142.21;100.00
5053;BME280;2545;50.892;5.740;2023-01-29T01:25:49;56400.34;;;-142.21;100.00
5053;BME280;2545;50.892;5.740;2023-01-29T01:28:14;56419.97;;;-142.21;100.00
5053;BME280;2545;50.892;5.740;2023-01-29T01:30:39;56421.91;;;-142.21;100.00
5053;BME280;2545;50.892;5.740;2023-01-29T01:33:05;56367.00;;;-142.21;100.00
5053;BME280;2545;50.892;5.740;2023-01-29T01:35:30;56402.31;;;-142.21;100.00
5053;BME280;2545;50.892;5.740;2023-01-29T01:37:56;56388.59;;;-142.21;100.00
5053;BME280;2545;50.892;5.740;2023-01-29T01:40:22;56439.56;;;-142.21;100.00
5053;BME280;2545;50.892;5.740;2023-01-29T01:42:50;56374.84;;;-142.21;100.00
5053;BME280;2545;50.892;5.740;2023-01-29T01:45:30;56370.94;;;-142.21;100.00
5053;BME280;2545;50.892;5.740;2023-01-29T01:51:01;56368.97;;;-142.21;100.00
5053;BME280;2545;50.892;5.740;2023-01-29T01:53:36;56425.84;;;-142.21;100.00
5053;BME280;2545;50.892;5.740;2023-01-29T01:56:26;56421.91;;;-142.21;100.00
5053;BME280;2545;50.892;5.740;2023-01-29T01:58:54;56398.38;;;-142.21;100.00
5053;BME280;2545;50.892;5.740;2023-01-29T02:01:22;56349.38;;;-142.21;100.00
5053;BME280;2545;50.892;5.740;2023-01-29T02:03:57;56376.81;;;-142.21;100.00
5053;BME280;2545;50.892;5.740;2023-01-29T02:06:43;56386.63;;;-142.21;100.00
5053;BME280;2545;50.892;5.740;2023-01-29T02:09:32;56416.03;;;-142.21;100.00
5053;BME280;2545;50.892;5.740;2023-01-29T02:12:33;56339.56;;;-142.21;100.00
5053;BME280;2545;50.892;5.740;2023-01-29T02:14:53;56380.75;;;-142.21;100.00
5053;BME280;2545;50.892;5.740;2023-01-29T02:17:19;56355.25;;;-142.21;100.00
5053;BME280;2545;50.892;5.740;2023-01-29T02:20:11;56416.03;;;-142.21;100.00
5053;BME280;2545;50.892;5.740;2023-01-29T02:22:45;56378.78;;;-142.21;100.00
5053;BME280;2545;50.892;5.740;2023-01-29T02:28:24;56406.22;;;-142.21;100.00
5053;BME280;2545;50.892;5.740;2023-01-29T02:45:18;56421.91;;;-142.21;100.00
5053;BME280;2545;50.892;5.740;2023-01-29T02:47:59;56372.91;;;-142.21;100.00
5053;BME280;2545;50.892;5.740;2023-01-29T02:50:37;56419.97;;;-142.21;100.00
5053;BME280;2545;50.892;5.740;2023-01-29T02:53:14;56384.66;;;-142.21;100.00
5053;BME280;2545;50.892;5.740;2023-01-29T02:58:12;56418.00;;;-142.21;100.00
5053;BME280;2545;50.892;5.740;2023-01-29T03:00:42;56394.47;;;-142.21;100.00
5053;BME280;2545;50.892;5.740;2023-01-29T03:03:16;56374.84;;;-142.21;100.00
5053;BME280;2545;50.892;5.740;2023-01-29T03:06:06;56419.97;;;-142.21;100.00
5053;BME280;2545;50.892;5.740;2023-01-29T03:08:42;56372.91;;;-142.21;100.00
5053;BME280;2545;50.892;5.740;2023-01-29T03:11:13;56402.31;;;-142.21;100.00
5053;BME280;2545;50.892;5.740;2023-01-29T03:19:00;56394.47;;;-142.21;100.00
5053;BME280;2545;50.892;5.740;2023-01-29T03:21:36;56361.13;;;-142.21;100.00
5053;BME280;2545;50.892;5.740;2023-01-29T03:24:20;56410.16;;;-142.21;100.00
5053;BME280;2545;50.892;5.740;2023-01-29T03:27:08;56378.78;;;-142.21;100.00
5053;BME280;2545;50.892;5.740;2023-01-29T03:29:53;56347.41;;;-142.21;100.00
5053;BME280;2545;50.892;5.740;2023-01-29T03:32:38;56427.81;;;-142.21;100.00
5053;BME280;2545;50.892;5.740;2023-01-29T03:35:06;56414.06;;;-142.21;100.00
5053;BME280;2545;50.892;5.740;2023-01-29T03:37:39;56374.84;;;-142.21;100.00
5053;BME280;2545;50.892;5.740;2023-01-29T03:40:07;56374.84;;;-142.21;100.00
5053;BME280;2545;50.892;5.740;2023-01-29T03:45:26;56337.59;;;-142.21;100.00
5053;BME280;2545;50.892;5.740;2023-01-29T03:47:57;56365.06;;;-142.21;100.00
5053;BME280;2545;50.892;5.740;2023-01-29T03:50:53;56394.47;;;-142.21;100.00
5053;BME280;2545;50.892;5.740;2023-01-29T03:53:22;56394.47;;;-142.21;100.00
5053;BME280;2545;50.892;5.740;2023-01-29T03:55:57;56429.75;;;-142.21;100.00
5053;BME280;2545;50.892;5.740;2023-01-29T03:58:46;56414.06;;;-142.21;100.00
5053;BME280;2545;50.892;5.740;2023-01-29T04:01:26;56376.81;;;-142.21;100.00
5053;BME280;2545;50.892;5.740;2023-01-29T04:04:11;56386.63;;;-142.21;100.00
5053;BME280;2545;50.892;5.740;2023-01-29T04:06:40;56370.94;;;-142.21;100.00
5053;BME280;2545;50.892;5.740;2023-01-29T04:09:17;56386.63;;;-142.21;100.00
5053;BME280;2545;50.892;5.740;2023-01-29T04:11:51;56410.16;;;-142.21;100.00
5053;BME280;2545;50.892;5.740;2023-01-29T04:14:19;56416.03;;;-142.21;100.00
5053;BME280;2545;50.892;5.740;2023-01-29T04:16:48;56374.84;;;-142.21;100.00
5053;BME280;2545;50.892;5.740;2023-01-29T04:19:15;56382.69;;;-142.21;100.00
5053;BME280;2545;50.892;5.740;2023-01-29T04:21:41;56390.53;;;-142.21;100.00
5053;BME280;2545;50.892;5.740;2023-01-29T04:24:07;56386.63;;;-142.21;100.00
5053;BME280;2545;50.892;5.740;2023-01-29T04:26:56;56341.53;;;-142.21;100.00
5053;BME280;2545;50.892;5.740;2023-01-29T04:29:42;56406.22;;;-142.21;100.00
5053;BME280;2545;50.892;5.740;2023-01-29T04:32:19;56435.66;;;-142.21;100.00
5053;BME280;2545;50.892;5.740;2023-01-29T04:37:24;56390.53;;;-142.21;100.00
5053;BME280;2545;50.892;5.740;2023-01-29T04:40:03;56365.06;;;-142.21;100.00
5053;BME280;2545;50.892;5.740;2023-01-29T04:42:40;56372.91;;;-142.21;100.00
5053;BME280;2545;50.892;5.740;2023-01-29T04:45:26;56329.75;;;-142.21;100.00
5053;BME280;2545;50.892;5.740;2023-01-29T04:50:35;56394.47;;;-142.21;100.00
5053;BME280;2545;50.892;5.740;2023-01-29T04:56:05;56392.50;;;-142.21;100.00
5053;BME280;2545;50.892;5.740;2023-01-29T04:58:40;56365.06;;;-142.21;100.00
5053;BME280;2545;50.892;5.740;2023-01-29T05:01:11;56359.16;;;-142.21;100.00
5053;BME280;2545;50.892;5.740;2023-01-29T05:03:40;56386.63;;;-142.21;100.00
5053;BME280;2545;50.892;5.740;2023-01-29T05:06:08;56429.75;;;-142.21;100.00
5053;BME280;2545;50.892;5.740;2023-01-29T05:08:36;56357.22;;;-142.21;100.00
5053;BME280;2545;50.892;5.740;2023-01-29T05:11:03;56390.53;;;-142.21;100.00
5053;BME280;2545;50.892;5.740;2023-01-29T05:13:30;56396.44;;;-142.21;100.00
5053;BME280;2545;50.892;5.740;2023-01-29T05:16:04;56359.16;;;-142.21;100.00
5053;BME280;2545;50.892;5.740;2023-01-29T05:18:32;56406.22;;;-142.21;100.00
5053;BME280;2545;50.892;5.740;2023-01-29T05:21:01;56390.53;;;-142.21;100.00
5053;BME280;2545;50.892;5.740;2023-01-29T05:23:29;56376.81;;;-142.21;100.00
5053;BME280;2545;50.892;5.740;2023-01-29T05:25:55;56410.16;;;-142.21;100.00
5053;BME280;2545;50.892;5.740;2023-01-29T05:28:20;56382.69;;;-142.21;100.00
5053;BME280;2545;50.892;5.740;2023-01-29T05:30:48;56370.94;;;-142.21;100.00
5053;BME280;2545;50.892;5.740;2023-01-29T05:33:19;56392.50;;;-142.21;100.00
5053;BME280;2545;50.892;5.740;2023-01-29T05:35:46;56416.03;;;-142.21;100.00
5053;BME280;2545;50.892;5.740;2023-01-29T05:38:12;56414.06;;;-142.21;100.00
5053;BME280;2545;50.892;5.740;2023-01-29T05:40:37;56390.53;;;-142.21;100.00
5053;BME280;2545;50.892;5.740;2023-01-29T05:43:04;56396.44;;;-142.21;100.00
5053;BME280;2545;50.892;5.740;2023-01-29T05:45:30;56400.34;;;-142.21;100.00
5053;BME280;2545;50.892;5.740;2023-01-29T05:47:57;56394.47;;;-142.21;100.00
5053;BME280;2545;50.892;5.740;2023-01-29T05:50:23;56376.81;;;-142.21;100.00
5053;BME280;2545;50.892;5.740;2023-01-29T05:52:48;56370.94;;;-142.21;100.00
5053;BME280;2545;50.892;5.740;2023-01-29T05:55:14;56414.06;;;-142.21;100.00
5053;BME280;2545;50.892;5.740;2023-01-29T05:57:39;56378.78;;;-142.21;100.00
5053;BME280;2545;50.892;5.740;2023-01-29T06:00:06;56416.03;;;-142.21;100.00
5053;BME280;2545;50.892;5.740;2023-01-29T06:02:32;56410.16;;;-142.21;100.00
5053;BME280;2545;50.892;5.740;2023-01-29T06:04:57;56425.84;;;-142.21;100.00
5053;BME280;2545;50.892;5.740;2023-01-29T06:07:22;56402.31;;;-142.21;100.00
5053;BME280;2545;50.892;5.740;2023-01-29T06:09:48;56414.06;;;-142.21;100.00
5053;BME280;2545;50.892;5.740;2023-01-29T06:12:13;56386.63;;;-142.21;100.00
5053;BME280;2545;50.892;5.740;2023-01-29T06:14:38;56390.53;;;-142.21;100.00
5053;BME280;2545;50.892;5.740;2023-01-29T06:17:04;56386.63;;;-142.21;100.00
5053;BME280;2545;50.892;5.740;2023-01-29T06:19:29;56384.66;;;-142.21;100.00
5053;BME280;2545;50.892;5.740;2023-01-29T06:21:54;56443.50;;;-142.21;100.00
5053;BME280;2545;50.892;5.740;2023-01-29T06:24:20;56398.38;;;-142.21;100.00
5053;BME280;2545;50.892;5.740;2023-01-29T06:26:45;56396.44;;;-142.21;100.00
5053;BME280;2545;50.892;5.740;2023-01-29T06:29:10;56374.84;;;-142.21;100.00
5053;BME280;2545;50.892;5.740;2023-01-29T06:31:36;56388.59;;;-142.21;100.00
5053;BME280;2545;50.892;5.740;2023-01-29T06:34:01;56386.63;;;-142.21;100.00
5053;BME280;2545;50.892;5.740;2023-01-29T06:36:27;56341.53;;;-142.21;100.00
5053;BME280;2545;50.892;5.740;2023-01-29T06:38:53;56412.13;;;-142.21;100.00
5053;BME280;2545;50.892;5.740;2023-01-29T06:41:19;56398.38;;;-142.21;100.00
5053;BME280;2545;50.892;5.740;2023-01-29T06:43:49;56398.38;;;-142.21;100.00
5053;BME280;2545;50.892;5.740;2023-01-29T06:46:14;56394.47;;;-142.21;100.00
5053;BME280;2545;50.892;5.740;2023-01-29T06:48:40;56382.69;;;-142.21;100.00
5053;BME280;2545;50.892;5.740;2023-01-29T06:51:08;56398.38;;;-142.21;100.00
5053;BME280;2545;50.892;5.740;2023-01-29T06:53:34;56414.06;;;-142.21;100.00
5053;BME280;2545;50.892;5.740;2023-01-29T06:56:00;56394.47;;;-142.21;100.00
5053;BME280;2545;50.892;5.740;2023-01-29T06:58:25;56372.91;;;-142.21;100.00
5053;BME280;2545;50.892;5.740;2023-01-29T07:00:50;56365.06;;;-142.21;100.00
5053;BME280;2545;50.892;5.740;2023-01-29T07:03:16;56343.47;;;-142.21;100.00
5053;BME280;2545;50.892;5.740;2023-01-29T07:05:41;56378.78;;;-142.21;100.00
5053;BME280;2545;50.892;5.740;2023-01-29T07:08:07;56382.69;;;-142.21;100.00
5053;BME280;2545;50.892;5.740;2023-01-29T07:10:34;56363.09;;;-142.21;100.00
5053;BME280;2545;50.892;5.740;2023-01-29T07:12:59;56380.75;;;-142.21;100.00
5053;BME280;2545;50.892;5.740;2023-01-29T07:15:25;56382.69;;;-142.21;100.00
5053;BME280;2545;50.892;5.740;2023-01-29T07:17:57;56378.78;;;-142.21;100.00
5053;BME280;2545;50.892;5.740;2023-01-29T07:20:25;56367.00;;;-142.21;100.00
5053;BME280;2545;50.892;5.740;2023-01-29T07:22:51;56390.53;;;-142.21;100.00
5053;BME280;2545;50.892;5.740;2023-01-29T07:25:16;56386.63;;;-142.21;100.00
5053;BME280;2545;50.892;5.740;2023-01-29T07:27:42;56374.84;;;-142.21;100.00
5053;BME280;2545;50.892;5.740;2023-01-29T07:30:08;56370.94;;;-142.21;100.00
5053;BME280;2545;50.892;5.740;2023-01-29T07:32:33;56388.59;;;-142.21;100.00
5053;BME280;2545;50.892;5.740;2023-01-29T07:34:59;56386.63;;;-142.21;100.00
5053;BME280;2545;50.892;5.740;2023-01-29T07:37:25;56380.75;;;-142.21;100.00
5053;BME280;2545;50.892;5.740;2023-01-29T07:39:50;56406.22;;;-142.21;100.00
5053;BME280;2545;50.892;5.740;2023-01-29T07:42:15;56394.47;;;-142.21;100.00
5053;BME280;2545;50.892;5.740;2023-01-29T07:44:40;56361.13;;;-142.21;100.00
5053;BME280;2545;50.892;5.740;2023-01-29T07:47:06;56402.31;;;-142.21;100.00
5053;BME280;2545;50.892;5.740;2023-01-29T07:49:31;56437.59;;;-142.21;100.00
5053;BME280;2545;50.892;5.740;2023-01-29T07:51:56;56406.22;;;-142.21;100.00
5053;BME280;2545;50.892;5.740;2023-01-29T07:54:22;56398.38;;;-142.21;100.00
5053;BME280;2545;50.892;5.740;2023-01-29T07:56:47;56390.53;;;-142.21;100.00
5053;BME280;2545;50.892;5.740;2023-01-29T07:59:12;56425.84;;;-142.21;100.00
5053;BME280;2545;50.892;5.740;2023-01-29T08:01:37;56380.75;;;-142.21;100.00
5053;BME280;2545;50.892;5.740;2023-01-29T08:04:03;56380.75;;;-142.21;100.00
5053;BME280;2545;50.892;5.740;2023-01-29T08:06:28;56398.38;;;-142.21;100.00
5053;BME280;2545;50.892;5.740;2023-01-29T08:08:53;56404.28;;;-142.21;100.00
5053;BME280;2545;50.892;5.740;2023-01-29T08:11:21;56384.66;;;-142.21;100.00
5053;BME280;2545;50.892;5.740;2023-01-29T08:13:46;56382.69;;;-142.21;100.00
5053;BME280;2545;50.892;5.740;2023-01-29T08:16:12;56365.06;;;-142.21;100.00
5053;BME280;2545;50.892;5.740;2023-01-29T08:18:37;56388.59;;;-142.21;100.00
5053;BME280;2545;50.892;5.740;2023-01-29T08:21:03;56380.75;;;-142.21;100.00
5053;BME280;2545;50.892;5.740;2023-01-29T08:23:29;56370.94;;;-142.21;100.00
5053;BME280;2545;50.892;5.740;2023-01-29T08:25:54;56406.22;;;-142.21;100.00
5053;BME280;2545;50.892;5.740;2023-01-29T08:28:20;56363.09;;;-142.21;100.00
5053;BME280;2545;50.892;5.740;2023-01-29T08:30:45;56418.00;;;-142.21;100.00
5053;BME280;2545;50.892;5.740;2023-01-29T08:33:10;56382.69;;;-142.21;100.00
5053;BME280;2545;50.892;5.740;2023-01-29T08:35:36;56406.22;;;-142.21;100.00
5053;BME280;2545;50.892;5.740;2023-01-29T08:38:03;56414.06;;;-142.21;100.00
5053;BME280;2545;50.892;5.740;2023-01-29T08:40:31;56414.06;;;-142.21;100.00
5053;BME280;2545;50.892;5.740;2023-01-29T08:43:00;56378.78;;;-142.21;100.00
5053;BME280;2545;50.892;5.740;2023-01-29T08:45:26;56402.31;;;-142.21;100.00
5053;BME280;2545;50.892;5.740;2023-01-29T08:47:52;56353.28;;;-142.21;100.00
5053;BME280;2545;50.892;5.740;2023-01-29T08:50:17;56419.97;;;-142.21;100.00
5053;BME280;2545;50.892;5.740;2023-01-29T08:52:43;56425.84;;;-142.21;100.00
5053;BME280;2545;50.892;5.740;2023-01-29T08:55:09;56388.59;;;-142.21;100.00
5053;BME280;2545;50.892;5.740;2023-01-29T08:57:36;56384.66;;;-142.21;100.00
5053;BME280;2545;50.892;5.740;2023-01-29T09:00:02;56418.00;;;-142.21;99.67
5053;BME280;2545;50.892;5.740;2023-01-29T09:02:28;56402.31;;;-142.21;99.33
5053;BME280;2545;50.892;5.740;2023-01-29T09:04:53;56406.22;;;-142.21;99.28
5053;BME280;2545;50.892;5.740;2023-01-29T09:07:18;56416.03;;;-142.21;99.02
5053;BME280;2545;50.892;5.740;2023-01-29T09:09:45;56416.03;;;-142.21;98.23
5053;BME280;2545;50.892;5.740;2023-01-29T09:12:11;56400.34;;;-142.21;97.49
5053;BME280;2545;50.892;5.740;2023-01-29T09:14:36;56390.53;;;-142.21;97.58
5053;BME280;2545;50.892;5.740;2023-01-29T09:17:01;56386.63;;;-142.21;97.91
5053;BME280;2545;50.892;5.740;2023-01-29T09:19:27;56368.97;;;-142.21;98.18
5053;BME280;2545;50.892;5.740;2023-01-29T09:21:52;56396.44;;;-142.21;96.56
5053;BME280;2545;50.892;5.740;2023-01-29T09:24:17;56416.03;;;-142.21;97.00
5053;BME280;2545;50.892;5.740;2023-01-29T09:26:42;56410.16;;;-142.21;96.19
5053;BME280;2545;50.892;5.740;2023-01-29T09:29:09;56386.63;;;-142.21;96.72
5053;BME280;2545;50.892;5.740;2023-01-29T09:31:34;56392.50;;;-142.21;96.47
5053;BME280;2545;50.892;5.740;2023-01-29T09:34:00;56378.78;;;-142.21;96.86
5053;BME280;2545;50.892;5.740;2023-01-29T09:36:25;56386.63;;;-142.21;96.89
5053;BME280;2545;50.892;5.740;2023-01-29T09:38:50;56396.44;;;-142.21;97.23
5053;BME280;2545;50.892;5.740;2023-01-29T09:43:47;56414.06;;;-142.21;96.45
5053;BME280;2545;50.892;5.740;2023-01-29T09:46:39;56406.22;;;-142.21;96.64
5053;BME280;2545;50.892;5.740;2023-01-29T09:51:41;56412.13;;;-142.21;94.46
5053;BME280;2545;50.892;5.740;2023-01-29T09:54:14;56374.84;;;-142.21;93.34
5053;BME280;2545;50.892;5.740;2023-01-29T09:56:41;56394.47;;;-142.21;92.13
5053;BME280;2545;50.892;5.740;2023-01-29T09:59:10;56398.38;;;-142.21;91.09
5053;BME280;2545;50.892;5.740;2023-01-29T10:01:54;56374.84;;;-142.21;90.43
5053;BME280;2545;50.892;5.740;2023-01-29T10:07:16;56374.84;;;-142.21;89.46
5053;BME280;2545;50.892;5.740;2023-01-29T10:10:06;56372.91;;;-142.21;88.46
5053;BME280;2545;50.892;5.740;2023-01-29T10:12:46;56398.38;;;-142.21;89.32
5053;BME280;2545;50.892;5.740;2023-01-29T10:18:20;56367.00;;;-142.21;88.02
5053;BME280;2545;50.892;5.740;2023-01-29T10:20:57;56392.50;;;-142.21;87.77
5053;BME280;2545;50.892;5.740;2023-01-29T10:23:29;56386.63;;;-142.21;88.09
5053;BME280;2545;50.892;5.740;2023-01-29T10:25:57;56368.97;;;-142.21;89.23
5053;BME280;2545;50.892;5.740;2023-01-29T10:28:36;56416.03;;;-142.21;88.30
5053;BME280;2545;50.892;5.740;2023-01-29T10:31:09;56374.84;;;-142.21;89.10
5053;BME280;2545;50.892;5.740;2023-01-29T10:33:40;56398.38;;;-142.21;89.21
5053;BME280;2545;50.892;5.740;2023-01-29T10:36:14;56378.78;;;-142.21;89.32
5053;BME280;2545;50.892;5.740;2023-01-29T10:38:46;56402.31;;;-142.21;89.13
5053;BME280;2545;50.892;5.740;2023-01-29T10:41:29;56410.16;;;-142.21;88.58
5053;BME280;2545;50.892;5.740;2023-01-29T10:44:21;56402.31;;;-142.21;88.27
5053;BME280;2545;50.892;5.740;2023-01-29T10:55:18;56441.53;;;-142.21;86.64
5053;BME280;2545;50.892;5.740;2023-01-29T10:57:48;56421.91;;;-142.21;85.51
5053;BME280;2545;50.892;5.740;2023-01-29T11:00:20;56370.94;;;-142.21;86.83
5053;BME280;2545;50.892;5.740;2023-01-29T11:02:48;56423.88;;;-142.21;86.26
5053;BME280;2545;50.892;5.740;2023-01-29T11:05:24;56410.16;;;-142.21;86.33
5053;BME280;2545;50.892;5.740;2023-01-29T11:08:02;56398.38;;;-142.21;85.76
5053;BME280;2545;50.892;5.740;2023-01-29T11:10:31;56386.63;;;-142.21;86.25
5053;BME280;2545;50.892;5.740;2023-01-29T11:12:58;56376.81;;;-142.21;86.12
5053;BME280;2545;50.892;5.740;2023-01-29T11:15:27;56386.63;;;-142.21;86.53
5053;BME280;2545;50.892;5.740;2023-01-29T11:18:01;56423.88;;;-142.21;86.38
5053;BME280;2545;50.892;5.740;2023-01-29T11:20:29;56412.13;;;-142.21;86.42
5053;BME280;2545;50.892;5.740;2023-01-29T11:22:54;56367.00;;;-142.21;86.38
5053;BME280;2545;50.892;5.740;2023-01-29T11:25:21;56359.16;;;-142.21;85.24
5053;BME280;2545;50.892;5.740;2023-01-29T11:27:53;56400.34;;;-142.21;83.86
5053;BME280;2545;50.892;5.740;2023-01-29T11:30:22;56418.00;;;-142.21;83.98
5053;BME280;2545;50.892;5.740;2023-01-29T11:35:33;56398.38;;;-142.21;82.91
5053;BME280;2545;50.892;5.740;2023-01-29T11:38:08;56396.44;;;-142.21;83.84
5053;BME280;2545;50.892;5.740;2023-01-29T11:40:42;56359.16;;;-142.21;84.03
5053;BME280;2545;50.892;5.740;2023-01-29T11:45:56;56390.53;;;-142.21;84.24
5053;BME280;2545;50.892;5.740;2023-01-29T11:48:30;56406.22;;;-142.21;83.59
5053;BME280;2545;50.892;5.740;2023-01-29T11:50:58;56406.22;;;-142.21;84.16
5053;BME280;2545;50.892;5.740;2023-01-29T11:53:36;56384.66;;;-142.21;84.53
5053;BME280;2545;50.892;5.740;2023-01-29T11:56:06;56370.94;;;-142.21;85.17
5053;BME280;2545;50.892;5.740;2023-01-29T11:58:40;56396.44;;;-142.21;84.82
5053;BME280;2545;50.892;5.740;2023-01-29T12:01:06;56410.16;;;-142.21;84.36
5053;BME280;2545;50.892;5.740;2023-01-29T12:03:38;56376.81;;;-142.21;83.97
5053;BME280;2545;50.892;5.740;2023-01-29T12:06:19;56435.66;;;-142.21;85.23
5053;BME280;2545;50.892;5.740;2023-01-29T12:08:54;56421.91;;;-142.21;85.59
5053;BME280;2545;50.892;5.740;2023-01-29T12:11:30;56421.91;;;-142.21;84.71
5053;BME280;2545;50.892;5.740;2023-01-29T12:13:58;56398.38;;;-142.21;82.68
5053;BME280;2545;50.892;5.740;2023-01-29T12:16:29;56341.53;;;-142.21;82.84
5053;BME280;2545;50.892;5.740;2023-01-29T12:19:08;56390.53;;;-142.21;83.31
5053;BME280;2545;50.892;5.740;2023-01-29T12:24:33;56406.22;;;-142.21;83.99
5053;BME280;2545;50.892;5.740;2023-01-29T12:27:07;56427.81;;;-142.21;83.98
5053;BME280;2545;50.892;5.740;2023-01-29T12:29:45;56414.06;;;-142.21;84.71
5053;BME280;2545;50.892;5.740;2023-01-29T12:35:23;56404.28;;;-142.21;83.93
5053;BME280;2545;50.892;5.740;2023-01-29T12:38:02;56392.50;;;-142.21;83.46
5053;BME280;2545;50.892;5.740;2023-01-29T12:40:41;56425.84;;;-142.21;83.95
5053;BME280;2545;50.892;5.740;2023-01-29T12:43:14;56425.84;;;-142.21;83.09
5053;BME280;2545;50.892;5.740;2023-01-29T12:45:42;56386.63;;;-142.21;83.20
5053;BME280;2545;50.892;5.740;2023-01-29T12:48:13;56410.16;;;-142.21;83.70
5053;BME280;2545;50.892;5.740;2023-01-29T12:50:44;56412.13;;;-142.21;84.11
5053;BME280;2545;50.892;5.740;2023-01-29T12:53:30;56398.38;;;-142.21;84.24
5053;BME280;2545;50.892;5.740;2023-01-29T12:55:59;56384.66;;;-142.21;83.86
5053;BME280;2545;50.892;5.740;2023-01-29T12:58:34;56404.28;;;-142.21;83.52
5053;BME280;2545;50.892;5.740;2023-01-29T13:01:15;56429.75;;;-142.21;83.96
5053;BME280;2545;50.892;5.740;2023-01-29T13:03:45;56406.22;;;-142.21;83.74
5053;BME280;2545;50.892;5.740;2023-01-29T13:06:16;56412.13;;;-142.21;83.70
5053;BME280;2545;50.892;5.740;2023-01-29T13:08:52;56400.34;;;-142.21;83.65
5053;BME280;2545;50.892;5.740;2023-01-29T13:14:03;56408.19;;;-142.21;81.76
5053;BME280;2545;50.892;5.740;2023-01-29T13:16:36;56361.13;;;-142.21;81.16
5053;BME280;2545;50.892;5.740;2023-01-29T13:21:40;56368.97;;;-142.21;81.51
5053;BME280;2545;50.892;5.740;2023-01-29T13:24:15;56429.75;;;-142.21;81.72
5053;BME280;2545;50.892;5.740;2023-01-29T13:26:45;56398.38;;;-142.21;82.29
5053;BME280;2545;50.892;5.740;2023-01-29T13:29:26;56418.00;;;-142.21;82.45
5053;BME280;2545;50.892;5.740;2023-01-29T13:31:56;56388.59;;;-142.21;82.52
5053;BME280;2545;50.892;5.740;2023-01-29T13:34:24;56398.38;;;-142.21;82.50
5053;BME280;2545;50.892;5.740;2023-01-29T13:37:00;56414.06;;;-142.21;82.13
5053;BME280;2545;50.892;5.740;2023-01-29T13:39:30;56431.72;;;-142.21;81.74
5053;BME280;2545;50.892;5.740;2023-01-29T13:41:58;56408.19;;;-142.21;81.00
5053;BME280;2545;50.892;5.740;2023-01-29T13:44:33;56396.44;;;-142.21;80.64
5053;BME280;2545;50.892;5.740;2023-01-29T13:47:05;56414.06;;;-142.21;80.25
5053;BME280;2545;50.892;5.740;2023-01-29T13:49:38;56404.28;;;-142.21;80.67
5053;BME280;2545;50.892;5.740;2023-01-29T13:54:54;56402.31;;;-142.21;80.99
5053;BME280;2545;50.892;5.740;2023-01-29T14:10:35;56404.28;;;-142.21;79.21
5053;BME280;2545;50.892;5.740;2023-01-29T14:15:36;56398.38;;;-142.21;79.63
5053;BME280;2545;50.892;5.740;2023-01-29T14:18:17;56402.31;;;-142.21;80.08
5053;BME280;2545;50.892;5.740;2023-01-29T14:25:57;56429.75;;;-142.21;79.66
5053;BME280;2545;50.892;5.740;2023-01-29T14:28:28;56408.19;;;-142.21;79.97
5053;BME280;2545;50.892;5.740;2023-01-29T14:30:54;56404.28;;;-142.21;80.13
5053;BME280;2545;50.892;5.740;2023-01-29T14:35:50;56400.34;;;-142.21;80.08
5053;BME280;2545;50.892;5.740;2023-01-29T14:38:17;56427.81;;;-142.21;80.34
5053;BME280;2545;50.892;5.740;2023-01-29T14:40:45;56425.84;;;-142.21;79.80
5053;BME280;2545;50.892;5.740;2023-01-29T14:43:20;56416.03;;;-142.21;80.04
5053;BME280;2545;50.892;5.740;2023-01-29T14:45:48;56398.38;;;-142.21;80.20
5053;BME280;2545;50.892;5.740;2023-01-29T14:48:34;56382.69;;;-142.21;80.98
5053;BME280;2545;50.892;5.740;2023-01-29T14:51:19;56394.47;;;-142.21;80.80